Volunteer, South Dakota
Current Conditions -  °F | °C
As of 8:58 AM on Wednesday 28 Jan 2015 (Local Time) from KRCA Reporting Station
Overcast Overcast  
Wind Chill: 55°   Ceiling: 11000
Heat Index: 55°   Visibility: 10mi
Dew Point: 28°   Wind: 23mph
Humidity: 35%   Direction: 340°NNW
Pressure: 29.84"   Gusts: 31mph
Location:  44.4145°N, 103.17°W
Report Text: KRCA 281558Z AUTO 34020G27KT 10SM OVC110 13/M02 A2984 RMK AO2 PK WND 33028/35 SLP106 T01251025 $
Loading
Personal Weather Stations






























Interactive Weather Map New forecast layout! Learn more

10-Day Weather Forecast

Advertisements
Track Severe Weather on mobile